Airfield :
LOGIN :

Register | Disclaimer

   EN    FR    IT 

 










Legend :    VFR   Marginal VFR   IFR   Intensive IFR   Very Intensive IFR
Visi :
Ceiling :
>= 8 km
>= 3000ft
5 to 8 km
1000 to 3000 ft
1500m to 5 km
500 to 1000 ft
800 to 1500m
200 to 500 ft
< 800m
< 200 ft
Symbols :   Thunderstorms  Fog  Heavy snow  Heavy precipitations  Wind > 20 kt
SIGMETs :     Misc.  Thunderstorms  Icing  Turbulence  Mountain Waves  Volcanic Ashes







- Airport Elevation : 290 ft
- IATA code : OSI


LDOS - Osijek

CURRENT METAR :
  • 240530Z 18005KT CAVOK 05/04 Q1019

EXPIRED METARs :
  • 240500Z 19006KT CAVOK 05/04 Q1019
  • 240430Z 19007KT CAVOK 05/04 Q1019
  • 240400Z 19004KT CAVOK 06/05 Q1019
  • 240330Z 21004KT CAVOK 07/05 Q1019
  • 240300Z 18003KT CAVOK 08/06 Q1019

TAF TAF LDOS
Valid from the 24 at 06:00 until the 25 at 06:00 UTC


240525Z 2406/2506 20008KT CAVOK TX15/2413Z TN04/2504Z
PROB40
TEMPO 2420/2503 3000 BR
No reported NOTAMs for that airfield.



MET'MAP, your aeronautical weather chart ! - Copyright ORBIFLY December 2007 - Disclaimer

ORBIFLY MET'MAP TEAM :

Programming & Development : Alexandra Zaïnal
Concept & Development : Baudouin d'Aumeries
Co-Development & Prog : Marc-Olivier Méhu
Technical & hardware support : Manuel Goepfert

Contact : metmap@orbifly.com




SOURCES & CREDITS :

   NOAA